Tiempo atmosférico en la estación meteorológica de Mula, Murcia (290 m.)



Fecha
DESCASC
Temp. máxima en grados centígrados (hora)
DESCASC
Temp. mínima en grados centígrados (hora)
DESCASC
Temp. media en grados centígrados
DESCASC
Racha de viento máxima en m/sg (hora)
DESCASC
Velocidad máxima media en intervalos de 10 minutos(hora)
DESCASC
Precipitaciones diarias en mm
DESCASC
Precipitaciones de 00:00 a 06:00 en mm
DESCASC
Precipitaciones de 06:00 a 12:00 en mm
DESCASC
Precipitaciones de 12:00 a 18:00 en mm
DESCASC
Precipitaciones de 18:00 a 24:00 en mm
DESCASC
11-12-2019 19.5 (14:30) 5.6 (08:40) 12.5 15.28 (15:40) 8.61 (15:40) 0 0 0 0 0
10-12-2019 19.2 (16:10) 8.5 (23:00) 13.9 12.22 (07:20) 8.33 (07:10) 0 0 0 0 0
09-12-2019 20.4 (15:50) 11.5 (09:00) 15.9 12.22 (02:50) 6.67 (02:50) 0 0 0 0 0
08-12-2019 19.2 (15:30) 6.7 (00:00) 13 7.22 (05:50) 5.28 (03:40) 0 0 0 0 0
07-12-2019 17.3 (15:10) 7.5 (00:00) 12.4 5 (09:00) 3.61 (23:40) 0 0 0 0 0
06-12-2019 15 (16:20) 10.1 (00:00) 12.6 4.72 (15:40) 3.06 (15:40) 0 0 0 0 0
05-12-2019 15.8 (16:10) 8.9 (00:00) 12.3 6.39 (02:20) 3.89 (02:20) 0 0 0 0 0
04-12-2019 12.1 (15:20) 8.2 (00:00) 10.2 11.39 (00:20) 7.22 (08:20) 0.4 0.2 0.2 0 0
03-12-2019 11.3 (00:00) 7.9 (00:00) 9.6 13.61 (23:20) 8.33 (22:10) 35.8 23.4 1 10.6 0.8
02-12-2019 12.7 (00:50) 10 (00:00) 11.3 8.61 (19:30) 5.28 (19:50) 10.8 3.8 0.2 1 5.8
01-12-2019 20.1 (15:10) 8.6 (00:00) 14.4 7.22 (11:40) 5.28 (11:20) 0 0 0 0 0
30-11-2019 20.8 (15:30) 10.6 (00:00) 15.7 6.67 (05:20) 4.17 (00:50) 0 0 0 0 0
29-11-2019 21.9 (14:40) 8.7 (00:00) 15.3 9.72 (13:20) 5.83 (13:20) 0 0 0 0 0
28-11-2019 19.7 (13:40) 8.7 (00:00) 14.2 6.94 (22:50) 4.17 (23:30) 0 0 0 0 0
27-11-2019 22.3 (12:40) 10.6 (00:00) 16.4 11.11 (13:30) 6.67 (16:20) 0 0 0 0 0
26-11-2019 22 (15:00) 8.7 (00:00) 15.3 6.39 (03:50) 4.17 (04:10) 0 0 0 0 0
25-11-2019 21.7 (13:40) 8.1 (00:00) 14.9 9.17 (17:20) 5.83 (17:20) 0 0 0 0 0
24-11-2019 14.8 (13:50) 7.8 (00:00) 11.3 15.28 (13:10) 10.83 (13:10) 0 0 0 0 0
23-11-2019 16.3 (15:30) 8.5 (00:00) 12.4 16.94 (06:00) 10.56 (06:20) 0 0 0 0 0
22-11-2019 13.5 (17:00) 7.3 (00:00) 10.4 6.39 (17:40) 2.78 (03:30) 3.2 0 0.8 0.4 2
21-11-2019 14.5 (15:20) 6.1 (00:00) 10.3 3.89 (03:50) 2.78 (03:50) 0.4 0 0 0 0.4
20-11-2019 14.7 (15:00) 3.4 (00:00) 9 5.83 (00:40) 3.89 (07:20) 0.2 0 0 0 0.2
19-11-2019 15.6 (15:40) 4.6 (00:00) 10.1 8.89 (10:40) 5 (11:00) 0 0 0 0 0
18-11-2019 14.9 (14:30) 8.7 (00:00) 11.8 12.78 (17:10) 8.06 (11:00) 3.2 3.2 0 0 0
17-11-2019 18 (15:10) 3.2 (00:00) 10.6 8.06 (02:30) 4.72 (02:30) 0.2 0 0 0 0.2
16-11-2019 14.5 (15:20) 5.3 (00:00) 9.9 12.22 (16:00) 7.5 (10:50) 0 0 0 0 0
15-11-2019 13.7 (15:20) 4.9 (00:00) 9.3 11.11 (16:20) 7.5 (16:20) 0 0 0 0 0

Gráficas

Temp. máximas Temp. mínimas Temp. medias Precipitaciones Rachas de viento máximas Velocidades máximas media en intervalos de 10 minutos

Datos horarios

Fecha y hora oficial Temperatura (ºC) Velocidad del viento (km/h) Dirección del viento Racha (km/h) Dirección de racha Precipitación (mm) Presión (hPa) Tendencia (hPa) Humedad (%)
2019-12-14 23:00:00 11.4 12 Oeste 29 Noroeste 0 -- -- 64
2019-12-14 22:00:00 11.7 16 Oeste 24 Noroeste 0 -- -- 63
2019-12-14 21:00:00 12.4 12 Oeste 26 Noroeste 0 -- -- 62
2019-12-14 20:00:00 12.9 14 Noroeste 23 Noroeste 0 -- -- 62
2019-12-14 19:00:00 13.8 11 Oeste 17 Oeste 0 -- -- 62
2019-12-14 18:00:00 15.1 11 Noroeste 15 Oeste 0 -- -- 60
2019-12-14 17:00:00 17.5 10 Noroeste 20 Norte 0 -- -- 55
2019-12-14 16:00:00 18 10 Norte 24 Noroeste 0 -- -- 54
2019-12-14 15:00:00 17.8 18 Noroeste 30 Noroeste 0 -- -- 57
2019-12-14 14:00:00 17.1 15 Noroeste 29 Noroeste 0 -- -- 57
2019-12-14 13:00:00 16.4 18 Noroeste 35 Noroeste 0 -- -- 57
2019-12-14 12:00:00 15.1 22 Noroeste 35 Noroeste 0 -- -- 61
2019-12-14 11:00:00 13.9 20 Noroeste 30 Noroeste 0 -- -- 62
2019-12-14 10:00:00 13.4 20 Noroeste 32 Noroeste 0 -- -- 64
2019-12-14 09:00:00 8 15 Sudoeste 21 Sudoeste 0 -- -- 78
2019-12-14 08:00:00 9.9 12 Noroeste 21 Norte 0 -- -- 72
2019-12-14 07:00:00 8.7 8 Noroeste 15 Oeste 0 -- -- 76
2019-12-14 06:00:00 10.6 10 Noroeste 21 Noroeste 0 -- -- 68
2019-12-14 05:00:00 10.2 10 Oeste 17 Noroeste 0 -- -- 71
2019-12-14 04:00:00 10.1 9 Oeste 16 Sudoeste 0 -- -- 73
2019-12-14 03:00:00 12.1 7 Oeste 13 Oeste 0 -- -- 67
2019-12-14 02:00:00 14.3 11 Noroeste 28 Noroeste 0 -- -- 59
2019-12-14 01:00:00 14.6 13 Noroeste 27 Sudoeste 0 -- -- 60
2019-12-14 00:00:00 15 12 Noroeste 30 Noroeste 0 -- -- 59
2019-12-13 23:00:00 14.9 5 Noroeste 39 Oeste 0 -- -- 59
2019-12-13 22:00:00 15.5 20 Oeste 31 Oeste 0 -- -- 57
2019-12-13 21:00:00 15.2 10 Noroeste 30 Oeste 0 -- -- 58
2019-12-13 20:00:00 15.3 12 Noroeste 22 Oeste 0 -- -- 57
2019-12-13 19:00:00 15.6 12 Noroeste 23 Oeste 0 -- -- 58
2019-12-13 18:00:00 16.5 15 Noroeste 24 Noroeste 0 -- -- 56
2019-12-13 17:00:00 18 14 Noroeste 35 Oeste 0 -- -- 49
2019-12-13 16:00:00 19 15 Oeste 26 Oeste 0 -- -- 45
2019-12-13 15:00:00 18.8 11 Noroeste 37 Noroeste 0 -- -- 49
2019-12-13 14:00:00 19 20 Noroeste 41 Noroeste 0 -- -- 45
2019-12-13 13:00:00 19.7 21 Noroeste 36 Noroeste 0 -- -- 40
2019-12-13 12:00:00 18.3 5 Este 9 Este 0 -- -- 55
2019-12-13 11:00:00 15.6 2 Nordeste 7 Este 0 -- -- 68
2019-12-13 10:00:00 14.6 5 Este 15 Oeste 0 -- -- 65
2019-12-13 09:00:00 13.8 7 Oeste 13 Oeste 0 -- -- 66
2019-12-13 08:00:00 13.7 7 Oeste 17 Oeste 0 -- -- 67
2019-12-13 07:00:00 14.3 13 Sudoeste 21 Oeste 0 -- -- 64
2019-12-13 06:00:00 14.3 14 Sudoeste 24 Sudoeste 0 -- -- 64
2019-12-13 05:00:00 13.9 9 Oeste 21 Oeste 0 -- -- 64
2019-12-13 04:00:00 14.6 12 Oeste 21 Noroeste 0 -- -- 61
2019-12-13 03:00:00 14.2 15 Oeste 25 Oeste 0 -- -- 61
2019-12-13 02:00:00 10.1 5 Oeste 16 Oeste 0 -- -- 74
2019-12-13 01:00:00 8.8 5 Nordeste 11 Oeste 0 -- -- 74
2019-12-13 00:00:00 9.1 3 Norte 6 Nordeste 0 -- -- 73
2019-12-12 23:00:00 9.9 4 Sudeste 8 Este 0 -- -- 68
2019-12-12 22:00:00 9.8 3 Noroeste 6 Este 0 -- -- 67
2019-12-12 21:00:00 10.7 0 Calma 13 Oeste 0 -- -- 63
2019-12-12 20:00:00 10.8 3 Oeste 12 Oeste 0 -- -- 60
2019-12-12 19:00:00 11.2 6 Sudoeste 12 Oeste 0 -- -- 59
2019-12-12 18:00:00 12 8 Noroeste 19 Noroeste 0 -- -- 57
2019-12-12 17:00:00 13.3 12 Noroeste 26 Norte 0 -- -- 54
2019-12-12 16:00:00 13.7 15 Noroeste 33 Noroeste 0 -- -- 52
2019-12-12 15:00:00 14.2 20 Noroeste 41 Noroeste 0 -- -- 48
2019-12-12 14:00:00 14.3 24 Noroeste 38 Noroeste 0 -- -- 45
2019-12-12 13:00:00 14.5 16 Noroeste 29 Noroeste 0 -- -- 46
2019-12-12 12:00:00 13.1 12 Oeste 23 Noroeste 0 -- -- 49
2019-12-12 11:00:00 11 14 Noroeste 21 Noroeste 0 -- -- 54
2019-12-12 10:00:00 10.4 18 Noroeste 28 Noroeste 0 -- -- 56
2019-12-12 09:00:00 6.2 8 Sudoeste 15 Sudoeste 0 -- -- 71
2019-12-12 08:00:00 6.2 7 Sudoeste 13 Oeste 0 -- -- 69
2019-12-12 07:00:00 6.6 9 Sudoeste 15 Noroeste 0 -- -- 69
2019-12-12 06:00:00 8 10 Noroeste 29 Norte 0 -- -- 64
2019-12-12 05:00:00 9 14 Noroeste 22 Oeste 0 -- -- 59
2019-12-12 04:00:00 8.2 9 Noroeste 19 Noroeste 0 -- -- 62
2019-12-12 03:00:00 8.7 11 Oeste 22 Oeste 0 -- -- 60
2019-12-12 02:00:00 9 12 Oeste 30 Noroeste 0 -- -- 60
2019-12-12 01:00:00 10.4 19 Noroeste 33 Noroeste 0 -- -- 56
2019-12-12 00:00:00 10.8 18 Noroeste 33 Noroeste 0 -- -- 55
2019-12-11 23:00:00 11.1 10 Oeste 33 Noroeste 0 -- -- 55
2019-12-11 22:00:00 11.6 16 Noroeste 33 Noroeste 0 -- -- 55
2019-12-11 21:00:00 11.7 18 Noroeste 28 Noroeste 0 -- -- 58
2019-12-11 20:00:00 12.3 7 Noroeste 32 Noroeste 0 -- -- 62
2019-12-11 19:00:00 13.1 26 Noroeste 43 Norte 0 -- -- 59
2019-12-11 18:00:00 14.5 21 Noroeste 41 Noroeste 0 -- -- 57
2019-12-11 17:00:00 16.4 19 Noroeste 44 Noroeste 0 -- -- 48
2019-12-11 16:00:00 17.2 23 Oeste 55 Noroeste 0 -- -- 39
2019-12-11 15:00:00 18.8 21 Noroeste 37 Oeste 0 -- -- 37
2019-12-11 14:00:00 18.6 18 Noroeste 29 Noroeste 0 -- -- 34
2019-12-11 13:00:00 18.4 18 Noroeste 26 Noroeste 0 -- -- 30
2019-12-11 12:00:00 16.6 7 Noroeste 17 Norte 0 -- -- 38
2019-12-11 11:00:00 12.6 9 Oeste 17 Oeste 0 -- -- 50
2019-12-11 10:00:00 7.3 12 Sudoeste 17 Oeste 0 -- -- 63
2019-12-11 09:00:00 5.7 8 Sudoeste 18 Oeste 0 -- -- 66
2019-12-11 08:00:00 5.8 8 Oeste 21 Sudoeste 0 -- -- 62
2019-12-11 07:00:00 6.6 14 Oeste 25 Oeste 0 -- -- 58
2019-12-11 06:00:00 7.4 17 Oeste 27 Oeste 0 -- -- 55
2019-12-11 05:00:00 9.1 17 Oeste 30 Oeste 0 -- -- 49
2019-12-11 04:00:00 9.7 16 Oeste 30 Oeste 0 -- -- 46
2019-12-11 03:00:00 9.7 15 Oeste 27 Oeste 0 -- -- 47
2019-12-11 02:00:00 9.9 18 Oeste 32 Oeste 0 -- -- 49
2019-12-11 01:00:00 9.9 14 Oeste 27 Oeste 0 -- -- 54
2019-12-11 00:00:00 9.7 17 Oeste 28 Oeste 0 -- -- 57
2019-12-10 23:00:00 8.5 15 Oeste 22 Sudoeste 0 -- -- 61
2019-12-10 22:00:00 9.2 13 Oeste 18 Oeste 0 -- -- 58
2019-12-10 21:00:00 10.5 12 Oeste 21 Sudoeste 0 -- -- 54
2019-12-10 20:00:00 10.3 15 Oeste 26 Oeste 0 -- -- 61
2019-12-10 19:00:00 11.9 16 Oeste 23 Oeste 0 -- -- 59
2019-12-10 18:00:00 15.2 3 Norte 7 Este 0 -- -- 49
2019-12-10 17:00:00 17.9 5 Este 18 Noroeste 0 -- -- 41
2019-12-10 16:00:00 19.1 12 Noroeste 23 Oeste 0 -- -- 28
2019-12-10 15:00:00 18.7 12 Noroeste 28 Oeste 0 -- -- 36
2019-12-10 14:00:00 17.8 15 Noroeste 36 Oeste 0 -- -- 35
2019-12-10 13:00:00 18 6 Sudoeste 25 Sudoeste 0 -- -- 33
2019-12-10 12:00:00 16 8 Sudoeste 28 Oeste 0 -- -- 36
2019-12-10 11:00:00 13.4 8 Oeste 34 Noroeste 0 -- -- 42
2019-12-10 10:00:00 12.2 7 Oeste 26 Sudoeste 0 -- -- 43
2019-12-10 09:00:00 9.6 11 Sudoeste 19 Noroeste 0 -- -- 52
2019-12-10 08:00:00 11.3 11 Oeste 44 Noroeste 0 -- -- 42
2019-12-10 07:00:00 11.3 24 Noroeste 38 Oeste 0 -- -- 45
2019-12-10 06:00:00 10.8 14 Sudoeste 26 Sudoeste 0 -- -- 49
2019-12-10 05:00:00 11.1 10 Sudoeste 26 Sudoeste 0 -- -- 51
2019-12-10 04:00:00 11 8 Oeste 18 Sudoeste 0 -- -- 55
2019-12-10 03:00:00 12.1 6 Oeste 28 Sudoeste 0 -- -- 51
2019-12-10 02:00:00 12.8 14 Sudoeste 33 Sudoeste 0 -- -- 49
2019-12-10 01:00:00 12.7 10 Sudoeste 30 Oeste 0 -- -- 50
2019-12-10 00:00:00 13.9 11 Oeste 36 Oeste 0 -- -- 50
2019-12-09 23:00:00 13.6 17 Noroeste 28 Oeste 0 -- -- 45
2019-12-09 22:00:00 12.8 5 Oeste 12 Oeste 0 -- -- 50
2019-12-09 21:00:00 12.8 6 Sur 17 Sudoeste 0 -- -- 54
2019-12-09 20:00:00 12.9 8 Sudoeste 15 Oeste 0 -- -- 52
2019-12-09 19:00:00 15 10 Oeste 15 Oeste 0 -- -- 46
2019-12-09 18:00:00 17.1 3 Noroeste 14 Oeste 0 -- -- 48
2019-12-09 17:00:00 19.2 10 Noroeste 18 Oeste 0 -- -- 42
2019-12-09 16:00:00 20.4 8 Noroeste 22 Oeste 0 -- -- 35
2019-12-09 15:00:00 19.2 11 Oeste 25 Noroeste 0 -- -- 44
2019-12-09 14:00:00 18.6 8 Noroeste 21 Oeste 0 -- -- 46
2019-12-09 13:00:00 17.8 11 Noroeste 22 Oeste 0 -- -- 50
2019-12-09 12:00:00 17.3 13 Oeste 28 Oeste 0 -- -- 49
2019-12-09 11:00:00 15.1 17 Oeste 33 Oeste 0 -- -- 64
2019-12-09 10:00:00 12.8 14 Oeste 24 Sudoeste 0 -- -- 74
2019-12-09 09:00:00 11.5 12 Sudoeste 18 Oeste 0 -- -- 78
2019-12-09 08:00:00 13.1 8 Oeste 29 Oeste 0 -- -- 71
2019-12-09 07:00:00 13.5 11 Oeste 25 Noroeste 0 -- -- 70
2019-12-09 06:00:00 13.8 5 Oeste 38 Norte 0 -- -- 68
2019-12-09 05:00:00 14.2 10 Sudoeste 34 Noroeste 0 -- -- 65
2019-12-09 04:00:00 14 7 Oeste 29 Noroeste 0 -- -- 66
2019-12-09 03:00:00 14.1 24 Noroeste 44 Noroeste 0 -- -- 64
2019-12-09 02:00:00 13.7 22 Noroeste 32 Oeste 0 -- -- 66
2019-12-09 01:00:00 12.9 14 Oeste 28 Noroeste 0 -- -- 69
2019-12-09 00:00:00 12.5 12 Oeste 19 Oeste 0 -- -- 72
2019-12-08 23:00:00 10.8 7 Sudoeste 13 Oeste 0 -- -- 78
2019-12-08 22:00:00 11.6 10 Oeste 16 Oeste 0 -- -- 73
2019-12-08 21:00:00 11.2 10 Sudoeste 19 Oeste 0 -- -- 79
2019-12-08 20:00:00 11.6 12 Oeste 16 Oeste 0 -- -- 80
2019-12-08 19:00:00 12.4 11 Oeste 19 Oeste 0 -- -- 76
2019-12-08 18:00:00 14.9 8 Oeste 10 Sudoeste 0 -- -- 65
2019-12-08 17:00:00 17.8 5 Oeste 14 Oeste 0 -- -- 54
2019-12-08 16:00:00 18.7 4 Oeste 15 Noroeste 0 -- -- 51
2019-12-08 15:00:00 18.4 7 Sudoeste 23 Noroeste 0 -- -- 48
2019-12-08 14:00:00 16.5 13 Noroeste 22 Noroeste 0 -- -- 52
2019-12-08 13:00:00 16 11 Noroeste 21 Noroeste 0 -- -- 57
2019-12-08 12:00:00 14.6 16 Noroeste 24 Noroeste 0 -- -- 59
2019-12-08 11:00:00 13.1 14 Noroeste 26 Oeste 0 -- -- 62
2019-12-08 10:00:00 10.2 7 Oeste 15 Oeste 0 -- -- 78
2019-12-08 09:00:00 7.4 8 Oeste 18 Oeste 0 -- -- 84
2019-12-08 08:00:00 7 12 Oeste 21 Oeste 0 -- -- 85
2019-12-08 07:00:00 7.8 15 Oeste 23 Oeste 0 -- -- 82
2019-12-08 06:00:00 9 17 Oeste 26 Oeste 0 -- -- 79
2019-12-08 05:00:00 8.4 13 Oeste 25 Oeste 0 -- -- 83
2019-12-08 04:00:00 7.6 12 Oeste 24 Sudoeste 0 -- -- 86
2019-12-08 03:00:00 8 13 Oeste 21 Oeste 0 -- -- 85
2019-12-08 02:00:00 7.7 13 Oeste 19 Oeste 0 -- -- 86
2019-12-08 01:00:00 7.6 13 Oeste 20 Oeste 0 -- -- 88
2019-12-08 00:00:00 7.5 11 Oeste 18 Oeste 0 -- -- 90
2019-12-07 23:00:00 7.7 8 Oeste 14 Oeste 0 -- -- 91
2019-12-07 22:00:00 8.8 10 Oeste 15 Oeste 0 -- -- 88
2019-12-07 21:00:00 9.5 9 Oeste 14 Oeste 0 -- -- 88
2019-12-07 20:00:00 10.5 9 Oeste 12 Oeste 0 -- -- 87
2019-12-07 19:00:00 11.7 4 Oeste 9 Sudoeste 0 -- -- 82
2019-12-07 18:00:00 13.2 4 Oeste 6 Noroeste 0 -- -- 76
2019-12-07 17:00:00 15.2 5 Noroeste 12 Noroeste 0 -- -- 68
2019-12-07 16:00:00 17.1 3 Oeste 12 Oeste 0 -- -- 60
2019-12-07 15:00:00 17 6 Oeste 13 Noroeste 0 -- -- 60
2019-12-07 14:00:00 16.1 3 Noroeste 11 Norte 0 -- -- 60
2019-12-07 13:00:00 14.4 5 Noroeste 12 Oeste 0 -- -- 68
2019-12-07 12:00:00 12.2 8 Oeste 17 Oeste 0 -- -- 80
2019-12-07 11:00:00 11 9 Oeste 17 Noroeste 0 -- -- 84
2019-12-07 10:00:00 9.3 7 Oeste 16 Oeste 0 -- -- 91
2019-12-07 09:00:00 8.3 10 Oeste 18 Oeste 0 -- -- 92
2019-12-07 08:00:00 8.3 9 Oeste 17 Oeste 0 -- -- 92
2019-12-07 07:00:00 8 8 Oeste 16 Oeste 0 -- -- 93
2019-12-07 06:00:00 8.1 9 Oeste 15 Noroeste 0 -- -- 92
2019-12-07 05:00:00 8.4 9 Oeste 16 Oeste 0 -- -- 93
2019-12-07 04:00:00 8.5 9 Oeste 14 Oeste 0 -- -- 93
2019-12-07 03:00:00 8.9 10 Oeste 14 Sudoeste 0 -- -- 92
2019-12-07 02:00:00 9.5 6 Oeste 13 Oeste 0 -- -- 90
2019-12-07 01:00:00 9.9 8 Oeste 12 Oeste 0 -- -- 91
2019-12-07 00:00:00 10.1 8 Sudoeste 10 Oeste 0 -- -- 91
2019-12-06 23:00:00 10.8 5 Oeste 8 Noroeste 0 -- -- 89
2019-12-06 22:00:00 11.7 6 Oeste 9 Oeste 0 -- -- 88
2019-12-06 21:00:00 12 5 Oeste 8 Oeste 0 -- -- 86
2019-12-06 20:00:00 12.5 3 Sudoeste 4 Oeste 0 -- -- 81
2019-12-06 19:00:00 12.8 2 Noroeste 9 Noroeste 0 -- -- 80
2019-12-06 18:00:00 13.4 4 Noroeste 7 Nordeste 0 -- -- 77
2019-12-06 17:00:00 14.6 3 Nordeste 13 Noroeste 0 -- -- 69
2019-12-06 16:00:00 14.8 8 Noroeste 17 Noroeste 0 -- -- 71
2019-12-06 15:00:00 14.5 8 Oeste 14 Oeste 0 -- -- 71
2019-12-06 14:00:00 13.9 8 Oeste 14 Noroeste 0 -- -- 75
2019-12-06 13:00:00 13.4 7 Oeste 13 Noroeste 0 -- -- 78
2019-12-06 12:00:00 12.9 6 Oeste 10 Oeste 0 -- -- 80
2019-12-06 11:00:00 12.5 4 Oeste 13 Oeste 0 -- -- 83
2019-12-06 10:00:00 12 8 Oeste 14 Oeste 0 -- -- 85
2019-12-06 09:00:00 10.5 6 Oeste 12 Oeste 0 -- -- 93
2019-12-06 08:00:00 10.5 8 Oeste 10 Oeste 0 -- -- 92
2019-12-06 07:00:00 10.9 8 Oeste 12 Oeste 0 -- -- 92
2019-12-06 06:00:00 11.1 7 Sudoeste 9 Oeste 0 -- -- 93
2019-12-06 05:00:00 11.1 5 Noroeste 8 Noroeste 0 -- -- 94
2019-12-06 04:00:00 11.2 4 Sudoeste 6 Oeste 0 -- -- 94
2019-12-06 03:00:00 11.2 3 Noroeste 4 Oeste 0 -- -- 93
2019-12-06 02:00:00 11.3 3 Oeste 6 Sudoeste 0 -- -- 94
2019-12-06 01:00:00 11.3 3 Oeste 8 Oeste 0 -- -- 94
2019-12-06 00:00:00 11.5 4 Oeste 6 Sudoeste 0 -- -- 93
2019-12-05 23:00:00 11.9 0 Calma 4 Oeste 0 -- -- 91
2019-12-05 22:00:00 11.9 0 Calma 3 Norte 0 -- -- 91
2019-12-05 21:00:00 12 0 Calma 4 Este 0 -- -- 91
2019-12-05 20:00:00 12.4 3 Este 15 Este 0 -- -- 90
2019-12-05 19:00:00 12.8 7 Este 18 Este 0 -- -- 88
2019-12-05 18:00:00 12.9 2 Norte 6 Nordeste 0 -- -- 80
2019-12-05 17:00:00 13.9 4 Nordeste 15 Este 0 -- -- 74
2019-12-05 16:00:00 15.7 4 Sudeste 10 Sudeste 0 -- -- 64
2019-12-05 15:00:00 14.7 4 Este 13 Norte 0 -- -- 68
2019-12-05 14:00:00 14.8 8 Nordeste 15 Este 0 -- -- 67
2019-12-05 13:00:00 14.4 5 Nordeste 15 Nordeste 0 -- -- 67
2019-12-05 12:00:00 14.7 8 Este 15 Este 0 -- -- 66
2019-12-05 11:00:00 13.2 4 Este 8 Sudeste 0 -- -- 70
2019-12-05 10:00:00 10.8 3 Sudoeste 10 Oeste 0 -- -- 85
2019-12-05 09:00:00 9.2 5 Sudoeste 12 Oeste 0 -- -- 89
2019-12-05 08:00:00 9 7 Oeste 9 Oeste 0 -- -- 88
2019-12-05 07:00:00 9.6 4 Oeste 8 Sudoeste 0 -- -- 85
2019-12-05 06:00:00 9.9 4 Oeste 13 Oeste 0 -- -- 84
2019-12-05 05:00:00 10.3 6 Sudoeste 13 Noroeste 0 -- -- 83
2019-12-05 04:00:00 10.6 8 Noroeste 18 Oeste 0 -- -- 82
2019-12-05 03:00:00 11 10 Noroeste 23 Noroeste 0 -- -- 79
2019-12-05 02:00:00 11.1 10 Noroeste 18 Noroeste 0 -- -- 77
2019-12-05 01:00:00 10.4 6 Oeste 13 Noroeste 0 -- -- 82
2019-12-05 00:00:00 10.8 12 Noroeste 16 Noroeste 0 -- -- 80
2019-12-04 23:00:00 10.4 8 Oeste 13 Oeste 0 -- -- 85
2019-12-04 22:00:00 10.8 8 Oeste 17 Noroeste 0 -- -- 82
2019-12-04 21:00:00 11.5 12 Noroeste 24 Noroeste 0 -- -- 75
2019-12-04 20:00:00 11.7 15 Noroeste 29 Noroeste 0 -- -- 74
2019-12-04 19:00:00 11.8 18 Noroeste 30 Noroeste 0 -- -- 73
2019-12-04 18:00:00 11.4 15 Noroeste 28 Oeste 0 -- -- 77
2019-12-04 17:00:00 11.5 10 Noroeste 21 Norte 0 -- -- 79
2019-12-04 16:00:00 12.1 8 Noroeste 21 Noroeste 0 -- -- 78
2019-12-04 15:00:00 11.8 9 Noroeste 37 Noroeste 0 -- -- 79
2019-12-04 14:00:00 11.4 22 Noroeste 35 Noroeste 0 -- -- 81
2019-12-04 13:00:00 11 19 Noroeste 36 Noroeste 0 -- -- 85
2019-12-04 12:00:00 10.9 15 Noroeste 33 Noroeste 0.2 -- -- 83
2019-12-04 11:00:00 11.4 13 Noroeste 33 Oeste 0 -- -- 78
2019-12-04 10:00:00 11.3 23 Noroeste 38 Noroeste 0 -- -- 75
2019-12-04 09:00:00 11.2 19 Noroeste 39 Noroeste 0 -- -- 74
2019-12-04 08:00:00 10.9 26 Noroeste 41 Noroeste 0 -- -- 76
2019-12-04 07:00:00 10.7 21 Noroeste 38 Noroeste 0 -- -- 78
2019-12-04 06:00:00 10.5 15 Noroeste 33 Noroeste 0 -- -- 79
2019-12-04 05:00:00 10.3 13 Oeste 37 Noroeste 0 -- -- 80
2019-12-04 04:00:00 9.7 13 Oeste 35 Oeste 0 -- -- 82
2019-12-04 03:00:00 9.1 15 Oeste 36 Noroeste 0.2 -- -- 85
2019-12-04 02:00:00 8.8 15 Oeste 36 Noroeste 0 -- -- 85
2019-12-04 01:00:00 8.6 19 Noroeste 41 Noroeste 0 -- -- 86
2019-12-04 00:00:00 8.2 20 Noroeste 49 Noroeste 0.2 -- -- 88
2019-12-03 23:00:00 7.9 20 Noroeste 45 Noroeste 0.2 -- -- 91
2019-12-03 22:00:00 8.5 26 Noroeste 39 Noroeste 0.2 -- -- 89
2019-12-03 21:00:00 8.8 18 Noroeste 31 Noroeste 0 -- -- 88
2019-12-03 20:00:00 8.8 12 Noroeste 23 Noroeste 0 -- -- 92
2019-12-03 19:00:00 9 15 Noroeste 24 Noroeste 0.2 -- -- 94
2019-12-03 18:00:00 9.5 7 Oeste 10 Oeste 4 -- -- 95
2019-12-03 17:00:00 10 4 Noroeste 9 Noroeste 0.6 -- -- 96
2019-12-03 16:00:00 10.3 5 Oeste 8 Oeste 1.4 -- -- 96
2019-12-03 15:00:00 10.3 2 Este 20 Nordeste 3.8 -- -- 96
2019-12-03 14:00:00 10.7 7 Este 13 Este 0.6 -- -- 92
2019-12-03 13:00:00 10.7 0 Calma 6 Oeste 0.2 -- -- 93
2019-12-03 12:00:00 10 0 Calma 12 Oeste 0 -- -- 95
2019-12-03 11:00:00 9.7 9 Oeste 17 Oeste 0 -- -- 96
2019-12-03 10:00:00 9.5 11 Oeste 21 Oeste 0 -- -- 97
2019-12-03 09:00:00 9.5 11 Oeste 16 Oeste 0 -- -- 97
2019-12-03 08:00:00 9.5 8 Oeste 15 Sudoeste 0.8 -- -- 96
2019-12-03 07:00:00 9.7 6 Oeste 22 Noroeste 0.2 -- -- 95
2019-12-03 06:00:00 9.6 13 Noroeste 23 Noroeste 0.2 -- -- 96
2019-12-03 05:00:00 9.7 13 Noroeste 21 Oeste 1.8 -- -- 97
2019-12-03 04:00:00 10.4 7 Oeste 11 Oeste 7.8 -- -- 97
2019-12-03 03:00:00 10.6 3 Sudoeste 6 Este 7.4 -- -- 97
2019-12-03 02:00:00 10.9 6 Este 21 Nordeste 4.6 -- -- 97
2019-12-03 01:00:00 11.1 3 Este 10 Nordeste 1.6 -- -- 97
2019-12-03 00:00:00 11.3 3 Este 6 Este 0.2 -- -- 96
2019-12-02 23:00:00 11.3 0 Calma 8 Nordeste 0 -- -- 97
2019-12-02 22:00:00 11.4 5 Nordeste 22 Este 0.8 -- -- 97
2019-12-02 21:00:00 11.6 15 Este 27 Este 0.8 -- -- 97
2019-12-02 20:00:00 11.5 14 Nordeste 31 Nordeste 2.4 -- -- 96
2019-12-02 19:00:00 11.5 3 Noroeste 6 Oeste 1.6 -- -- 95
2019-12-02 18:00:00 11.4 3 Oeste 10 Oeste 0.8 -- -- 94
2019-12-02 17:00:00 11.6 6 Oeste 12 Oeste 0.2 -- -- 92
2019-12-02 16:00:00 11.9 8 Oeste 14 Oeste 0 -- -- 92
2019-12-02 15:00:00 12.1 9 Sudoeste 13 Sudoeste 0 -- -- 91
2019-12-02 14:00:00 12.5 5 Oeste 13 Oeste 0 -- -- 89
2019-12-02 13:00:00 12 7 Sudoeste 10 Oeste 0 -- -- 91
2019-12-02 12:00:00 11.4 6 Oeste 10 Sudoeste 0 -- -- 93
2019-12-02 11:00:00 11 5 Sudoeste 10 Sudoeste 0 -- -- 94
2019-12-02 10:00:00 10.8 4 Oeste 8 Oeste 0 -- -- 95
2019-12-02 09:00:00 10.3 5 Oeste 16 Oeste 0 -- -- 95
2019-12-02 08:00:00 10.1 8 Sudoeste 14 Oeste 0 -- -- 95
2019-12-02 07:00:00 10.1 9 Oeste 14 Oeste 0.2 -- -- 95
2019-12-02 06:00:00 10 9 Oeste 19 Sudoeste 2 -- -- 94
2019-12-02 05:00:00 10.5 15 Oeste 23 Oeste 1.8 -- -- 91
2019-12-02 04:00:00 10.9 9 Noroeste 25 Nordeste 0 -- -- 86
2019-12-02 03:00:00 12.2 8 Nordeste 24 Este 0 -- -- 84
2019-12-02 02:00:00 12.5 10 Este 22 Nordeste 0 -- -- 81
2019-12-02 01:00:00 12.7 13 Este 21 Este 0 -- -- 81
2019-12-02 00:00:00 12.5 4 Nordeste 8 Nordeste 0 -- -- 85
2019-12-01 23:00:00 12.5 4 Nordeste 14 Este 0 -- -- 86
2019-12-01 22:00:00 12.6 9 Este 23 Nordeste 0 -- -- 87
2019-12-01 21:00:00 12.7 12 Nordeste 23 Nordeste 0 -- -- 89
2019-12-01 20:00:00 12.8 11 Nordeste 24 Nordeste 0 -- -- 88
2019-12-01 19:00:00 13.3 0 Calma 6 Noroeste 0 -- -- 66
2019-12-01 18:00:00 15.5 2 Este 8 Este 0 -- -- 59
2019-12-01 17:00:00 17.3 5 Sudeste 13 Este 0 -- -- 54
2019-12-01 16:00:00 17.6 5 Este 12 Este 0 -- -- 52
2019-12-01 15:00:00 20 5 Sudoeste 15 Noroeste 0 -- -- 44
2019-12-01 14:00:00 18.7 5 Oeste 18 Noroeste 0 -- -- 48
2019-12-01 13:00:00 18 8 Noroeste 23 Noroeste 0 -- -- 53
2019-12-01 12:00:00 17.1 15 Norte 26 Norte 0 -- -- 58
2019-12-01 11:00:00 15.6 17 Noroeste 24 Noroeste 0 -- -- 64
2019-12-01 10:00:00 13.4 8 Oeste 22 Noroeste 0 -- -- 73
2019-12-01 09:00:00 9.1 8 Sudoeste 13 Noroeste 0 -- -- 86
2019-12-01 08:00:00 9 3 Sur 10 Noroeste 0 -- -- 81
2019-12-01 07:00:00 8.7 6 Oeste 11 Oeste 0 -- -- 81
2019-12-01 06:00:00 9.2 6 Oeste 12 Oeste 0 -- -- 78
2019-12-01 05:00:00 9.8 6 Noroeste 10 Oeste 0 -- -- 76
2019-12-01 04:00:00 9.2 4 Noroeste 11 Oeste 0 -- -- 81
2019-12-01 03:00:00 10.4 6 Oeste 12 Noroeste 0 -- -- 81
2019-12-01 02:00:00 11.5 3 Este 13 Noroeste 0 -- -- 79
2019-12-01 01:00:00 11.2 6 Oeste 15 Oeste 0 -- -- 87
2019-12-01 00:00:00 11.3 10 Oeste 14 Sudoeste 0 -- -- 85
2019-11-30 23:00:00 11.6 7 Oeste 19 Sudoeste 0 -- -- 85
2019-11-30 22:00:00 12.1 11 Oeste 17 Oeste 0 -- -- 84
2019-11-30 21:00:00 12.6 13 Oeste 21 Oeste 0 -- -- 83
2019-11-30 20:00:00 13.3 6 Oeste 8 Oeste 0 -- -- 82
2019-11-30 19:00:00 14.9 4 Este 9 Este 0 -- -- 77
2019-11-30 18:00:00 17 3 Este 12 Sudeste 0 -- -- 68
2019-11-30 17:00:00 19.2 9 Sudeste 15 Sudeste 0 -- -- 61
2019-11-30 16:00:00 20.6 8 Este 15 Este 0 -- -- 57
2019-11-30 15:00:00 20.5 6 Nordeste 15 Nordeste 0 -- -- 54
2019-11-30 14:00:00 19.8 3 Nordeste 13 Nordeste 0 -- -- 56
2019-11-30 13:00:00 19.4 4 Sudoeste 14 Oeste 0 -- -- 56
2019-11-30 12:00:00 17.9 7 Noroeste 17 Oeste 0 -- -- 62
2019-11-30 11:00:00 16.3 11 Noroeste 19 Sudoeste 0 -- -- 67
2019-11-30 10:00:00 13.5 12 Oeste 21 Sudoeste 0 -- -- 77
2019-11-30 09:00:00 10.9 11 Oeste 21 Sudoeste 0 -- -- 84
2019-11-30 08:00:00 10.6 12 Oeste 16 Oeste 0 -- -- 85
2019-11-30 07:00:00 11.1 9 Oeste 16 Oeste 0 -- -- 84
2019-11-30 06:00:00 12.1 10 Oeste 24 Oeste 0 -- -- 81
2019-11-30 05:00:00 12.2 12 Oeste 21 Oeste 0 -- -- 81
2019-11-30 04:00:00 12.3 13 Oeste 22 Oeste 0 -- -- 80
2019-11-30 03:00:00 11.9 13 Oeste 23 Oeste 0 -- -- 81
2019-11-30 02:00:00 11.7 12 Oeste 23 Oeste 0 -- -- 80
2019-11-30 01:00:00 11.5 15 Oeste 23 Sudoeste 0 -- -- 81
2019-11-30 00:00:00 12.9 13 Oeste 25 Sudoeste 0 -- -- 77
2019-11-29 23:00:00 13.6 10 Oeste 22 Oeste 0 -- -- 75
2019-11-29 22:00:00 14.7 12 Oeste 22 Oeste 0 -- -- 72
2019-11-29 21:00:00 15.4 13 Noroeste 21 Oeste 0 -- -- 69
2019-11-29 20:00:00 14.2 11 Oeste 15 Oeste 0 -- -- 74
2019-11-29 19:00:00 15.4 11 Sudoeste 13 Sudoeste 0 -- -- 70
2019-11-29 18:00:00 18.1 4 Oeste 10 Oeste 0 -- -- 60
2019-11-29 17:00:00 19.6 8 Noroeste 11 Noroeste 0 -- -- 56
2019-11-29 16:00:00 20.1 6 Oeste 21 Noroeste 0 -- -- 55
2019-11-29 15:00:00 21.6 9 Norte 23 Norte 0 -- -- 50
2019-11-29 14:00:00 21.4 9 Norte 35 Norte 0 -- -- 50
2019-11-29 13:00:00 20.7 19 Noroeste 28 Noroeste 0 -- -- 51
2019-11-29 12:00:00 19 13 Oeste 27 Noroeste 0 -- -- 54
2019-11-29 11:00:00 17.2 12 Noroeste 23 Oeste 0 -- -- 58
2019-11-29 10:00:00 14.9 11 Oeste 23 Sudoeste 0 -- -- 63
2019-11-29 09:00:00 11.9 14 Oeste 25 Oeste 0 -- -- 69
2019-11-29 08:00:00 10.2 11 Sudoeste 22 Sudoeste 0 -- -- 73
2019-11-29 07:00:00 9.8 9 Oeste 20 Sudoeste 0 -- -- 73
2019-11-29 06:00:00 9.3 10 Oeste 22 Sudoeste 0 -- -- 75
2019-11-29 05:00:00 8.8 13 Oeste 23 Oeste 0 -- -- 78
2019-11-29 04:00:00 9.5 15 Oeste 21 Oeste 0 -- -- 76
2019-11-29 03:00:00 9.8 12 Oeste 21 Oeste 0 -- -- 77
2019-11-29 02:00:00 11.8 14 Noroeste 23 Noroeste 0 -- -- 73
2019-11-29 01:00:00 11.2 10 Oeste 22 Oeste 0 -- -- 75
2019-11-29 00:00:00 10.7 13 Sudoeste 22 Sudoeste 0 -- -- 78
2019-11-28 23:00:00 12.9 10 Oeste 25 Noroeste 0 -- -- 69
2019-11-28 22:00:00 11.8 9 Oeste 21 Sudoeste 0 -- -- 74
2019-11-28 21:00:00 12.3 11 Oeste 22 Oeste 0 -- -- 73
2019-11-28 20:00:00 12 11 Sudoeste 15 Sudoeste 0 -- -- 75
2019-11-28 19:00:00 14 7 Oeste 10 Sudoeste 0 -- -- 68
2019-11-28 18:00:00 16.7 0 Calma 7 Noroeste 0 -- -- 58
2019-11-28 17:00:00 18.3 0 Calma 8 Sudeste 0 -- -- 52
2019-11-28 16:00:00 18.9 5 Este 13 Este 0 -- -- 49
2019-11-28 15:00:00 19.5 7 Este 15 Este 0 -- -- 47
2019-11-28 14:00:00 19.5 4 Este 9 Sudeste 0 -- -- 45
2019-11-28 13:00:00 19.3 2 Sudoeste 12 Sur 0 -- -- 45
2019-11-28 12:00:00 18.6 5 Sur 9 Sur 0 -- -- 49
2019-11-28 11:00:00 15.7 2 Norte 12 Oeste 0 -- -- 59
2019-11-28 10:00:00 12 7 Oeste 13 Oeste 0 -- -- 73
2019-11-28 09:00:00 8.9 9 Oeste 13 Oeste 0 -- -- 77
2019-11-28 08:00:00 10 9 Oeste 13 Oeste 0 -- -- 74
2019-11-28 07:00:00 9 3 Noroeste 7 Norte 0 -- -- 74
2019-11-28 06:00:00 8.8 3 Oeste 9 Sudoeste 0 -- -- 74
2019-11-28 05:00:00 8.9 7 Sudoeste 14 Oeste 0 -- -- 74
2019-11-28 04:00:00 9.3 11 Oeste 15 Oeste 0 -- -- 73
2019-11-28 03:00:00 9.6 11 Oeste 14 Oeste 0 -- -- 72
2019-11-28 02:00:00 10.4 9 Oeste 14 Oeste 0 -- -- 69
2019-11-28 01:00:00 10.6 4 Noroeste 6 Nordeste 0 -- -- 68
2019-11-28 00:00:00 10.6 2 Norte 13 Sudoeste 0 -- -- 67
2019-11-27 23:00:00 11.1 8 Sudoeste 12 Oeste 0 -- -- 65
2019-11-27 22:00:00 11.7 9 Oeste 15 Sudoeste 0 -- -- 64
2019-11-27 21:00:00 13.1 10 Sudoeste 24 Oeste 0 -- -- 61
2019-11-27 20:00:00 14.4 11 Noroeste 18 Noroeste 0 -- -- 57
2019-11-27 19:00:00 15.6 14 Noroeste 23 Noroeste 0 -- -- 54
2019-11-27 18:00:00 16.9 12 Noroeste 34 Norte 0 -- -- 50
2019-11-27 17:00:00 18.7 21 Noroeste 34 Noroeste 0 -- -- 45
2019-11-27 16:00:00 20.3 19 Noroeste 35 Norte 0 -- -- 43
2019-11-27 15:00:00 21.8 17 Noroeste 30 Norte 0 -- -- 39
2019-11-27 14:00:00 21.7 17 Norte 40 Noroeste 0 -- -- 47
2019-11-27 06:00:00 13.5 3 Sudoeste 11 Este 0 -- -- 77
2019-11-27 05:00:00 14.2 6 Oeste 17 Oeste 0 -- -- 74
2019-11-27 04:00:00 14.4 8 Oeste 14 Noroeste 0 -- -- 72
2019-11-27 03:00:00 15.6 13 Noroeste 25 Oeste 0 -- -- 69
2019-11-27 02:00:00 13.9 8 Oeste 14 Oeste 0 -- -- 73
2019-11-27 01:00:00 13 4 Oeste 14 Oeste 0 -- -- 77
2019-11-27 00:00:00 11.2 4 Oeste 11 Oeste 0 -- -- 84
2019-11-26 23:00:00 11 5 Oeste 15 Sudoeste 0 -- -- 86
2019-11-26 22:00:00 11.6 8 Oeste 14 Oeste 0 -- -- 85
2019-11-26 21:00:00 12.5 4 Oeste 13 Oeste 0 -- -- 82
2019-11-26 20:00:00 13.9 6 Sudoeste 9 Sudoeste 0 -- -- 78
2019-11-26 19:00:00 15.4 7 Sudoeste 8 Sudoeste 0 -- -- 72
2019-11-26 18:00:00 17.3 5 Noroeste 16 Sudoeste 0 -- -- 65
2019-11-26 17:00:00 19.7 8 Sudoeste 14 Sudoeste 0 -- -- 56
2019-11-26 16:00:00 20.9 4 Oeste 18 Norte 0 -- -- 54
2019-11-26 15:00:00 22 8 Noroeste 16 Norte 0 -- -- 46
2019-11-26 14:00:00 21.2 7 Noroeste 15 Noroeste 0 -- -- 50
2019-11-26 13:00:00 20.3 6 Noroeste 18 Norte 0 -- -- 50
2019-11-26 12:00:00 18.9 13 Norte 21 Norte 0 -- -- 56
2019-11-26 11:00:00 17.2 13 Noroeste 20 Oeste 0 -- -- 59
2019-11-26 10:00:00 12.3 4 Oeste 12 Oeste 0 -- -- 82
2019-11-26 09:00:00 9.8 9 Oeste 16 Oeste 0 -- -- 87
2019-11-26 08:00:00 8.7 8 Oeste 14 Oeste 0 -- -- 88
2019-11-26 07:00:00 9 10 Oeste 17 Oeste 0 -- -- 87
2019-11-26 06:00:00 10.1 10 Oeste 17 Oeste 0 -- -- 85
2019-11-26 05:00:00 9.4 10 Oeste 22 Sudoeste 0 -- -- 86
2019-11-26 04:00:00 10.1 15 Oeste 23 Oeste 0 -- -- 85
2019-11-26 03:00:00 10.4 10 Oeste 20 Sudoeste 0 -- -- 84
2019-11-26 02:00:00 10.9 11 Sudoeste 15 Oeste 0 -- -- 83
2019-11-26 01:00:00 12.4 11 Sudoeste 17 Oeste 0 -- -- 77
2019-11-26 00:00:00 12.7 12 Oeste 17 Sudoeste 0 -- -- 78
2019-11-25 23:00:00 12.9 12 Oeste 20 Oeste 0 -- -- 77
2019-11-25 22:00:00 13.3 10 Oeste 18 Oeste 0 -- -- 77
2019-11-25 21:00:00 14.2 10 Oeste 16 Oeste 0 -- -- 74
2019-11-25 20:00:00 15.4 9 Noroeste 15 Sudoeste 0 -- -- 70
2019-11-25 19:00:00 16.5 6 Oeste 26 Noroeste 0 -- -- 65
2019-11-25 18:00:00 17.5 18 Noroeste 33 Noroeste 0 -- -- 63
2019-11-25 17:00:00 19.4 17 Noroeste 30 Noroeste 0 -- -- 59
2019-11-25 16:00:00 20.2 18 Noroeste 26 Noroeste 0 -- -- 57
2019-11-25 15:00:00 19.9 10 Noroeste 15 Noroeste 0 -- -- 58
2019-11-25 14:00:00 20.6 6 Este 22 Oeste 0 -- -- 52
2019-11-25 13:00:00 21.1 12 Oeste 23 Sudoeste 0 -- -- 52
2019-11-25 12:00:00 18.4 3 Oeste 10 Oeste 0 -- -- 60
2019-11-25 11:00:00 13.1 3 Este 6 Sur 0 -- -- 71
2019-11-25 10:00:00 11.5 0 Calma 8 Sur 0 -- -- 75
2019-11-25 09:00:00 10.7 4 Sudoeste 14 Oeste 0 -- -- 72
2019-11-25 08:00:00 8.5 8 Oeste 18 Sudoeste 0 -- -- 80
2019-11-25 07:00:00 8.8 12 Sudoeste 17 Sudoeste 0 -- -- 75
2019-11-25 06:00:00 9.9 8 Sudoeste 16 Noroeste 0 -- -- 70
2019-11-25 05:00:00 10.7 9 Oeste 21 Oeste 0 -- -- 66
2019-11-25 04:00:00 11.8 14 Oeste 26 Oeste 0 -- -- 66
2019-11-25 03:00:00 11.1 14 Noroeste 22 Noroeste 0 -- -- 65
2019-11-25 02:00:00 10.4 14 Noroeste 24 Noroeste 0 -- -- 63
2019-11-25 01:00:00 10.4 14 Noroeste 24 Noroeste 0 -- -- 61
2019-11-25 00:00:00 10.7 14 Noroeste 24 Oeste 0 -- -- 58
2019-11-24 23:00:00 11.3 18 Noroeste 29 Noroeste 0 -- -- 57
2019-11-24 22:00:00 11.2 19 Noroeste 30 Noroeste 0 -- -- 54
2019-11-24 21:00:00 11.2 13 Noroeste 25 Oeste 0 -- -- 53
2019-11-24 20:00:00 11.3 16 Noroeste 24 Noroeste 0 -- -- 54
2019-11-24 19:00:00 11.2 18 Noroeste 30 Noroeste 0 -- -- 55
2019-11-24 18:00:00 12.4 17 Noroeste 24 Noroeste 0 -- -- 52
2019-11-24 17:00:00 14 21 Noroeste 40 Noroeste 0 -- -- 49
2019-11-24 16:00:00 13.9 23 Noroeste 46 Noroeste 0 -- -- 49
2019-11-24 15:00:00 14.1 29 Noroeste 46 Noroeste 0 -- -- 49
2019-11-24 14:00:00 14.7 33 Noroeste 55 Noroeste 0 -- -- 47
2019-11-24 13:00:00 14 34 Noroeste 54 Noroeste 0 -- -- 48
2019-11-24 12:00:00 12.9 29 Noroeste 50 Noroeste 0 -- -- 53
2019-11-24 11:00:00 13.7 26 Noroeste 46 Oeste 0 -- -- 49
2019-11-24 10:00:00 12.7 25 Noroeste 46 Oeste 0 -- -- 51
2019-11-24 09:00:00 11.4 25 Noroeste 40 Noroeste 0 -- -- 53
2019-11-24 08:00:00 10.5 23 Noroeste 38 Oeste 0 -- -- 55
2019-11-24 07:00:00 9.1 11 Oeste 22 Oeste 0 -- -- 61
2019-11-24 06:00:00 9.1 12 Oeste 24 Oeste 0 -- -- 61
2019-11-24 05:00:00 8.2 5 Oeste 9 Sudoeste 0 -- -- 63
2019-11-24 04:00:00 8.9 5 Oeste 19 Oeste 0 -- -- 59
2019-11-24 03:00:00 9.2 10 Oeste 19 Oeste 0 -- -- 59
2019-11-24 02:00:00 8.2 6 Sudoeste 15 Sudoeste 0 -- -- 62
2019-11-24 01:00:00 11.1 9 Oeste 23 Oeste 0 -- -- 52
2019-11-24 00:00:00 10.6 8 Oeste 26 Noroeste 0 -- -- 53
2019-11-23 23:00:00 12.5 13 Oeste 33 Oeste 0 -- -- 48
2019-11-23 22:00:00 12.5 18 Oeste 41 Oeste 0 -- -- 47
2019-11-23 21:00:00 12.9 27 Noroeste 44 Oeste 0 -- -- 45
2019-11-23 20:00:00 13.1 24 Noroeste 44 Noroeste 0 -- -- 44
2019-11-23 19:00:00 13.6 24 Noroeste 42 Noroeste 0 -- -- 42
2019-11-23 18:00:00 13.9 17 Noroeste 37 Noroeste 0 -- -- 42
2019-11-23 17:00:00 14.9 21 Noroeste 45 Noroeste 0 -- -- 39
2019-11-23 16:00:00 15.7 27 Noroeste 50 Noroeste 0 -- -- 37
2019-11-23 15:00:00 16 30 Noroeste 60 Noroeste 0 -- -- 37
2019-11-23 14:00:00 16.2 21 Noroeste 56 Noroeste 0 -- -- 39
2019-11-23 13:00:00 15.8 31 Noroeste 55 Noroeste 0 -- -- 42
2019-11-23 12:00:00 15.8 27 Noroeste 53 Oeste 0 -- -- 39
2019-11-23 11:00:00 15.3 20 Oeste 48 Oeste 0 -- -- 44
2019-11-23 10:00:00 13.9 31 Noroeste 54 Oeste 0 -- -- 48
2019-11-23 09:00:00 12.8 25 Oeste 59 Oeste 0 -- -- 49
2019-11-23 08:00:00 11.6 24 Oeste 44 Oeste 0 -- -- 58
2019-11-23 07:00:00 11.6 19 Oeste 61 Oeste 0 -- -- 65
2019-11-23 06:00:00 11.9 36 Oeste 61 Noroeste 0 -- -- 65
2019-11-23 05:00:00 9.9 6 Norte 17 Noroeste 0 -- -- 73
2019-11-23 04:00:00 9.6 10 Oeste 27 Oeste 0 -- -- 79
2019-11-23 03:00:00 9.1 14 Oeste 27 Oeste 0 -- -- 85
2019-11-23 02:00:00 8.5 7 Sur 17 Sudoeste 0 -- -- 97
2019-11-23 01:00:00 8.8 9 Oeste 14 Oeste 0 -- -- 97
2019-11-23 00:00:00 9.6 5 Oeste 10 Sudoeste 0 -- -- 96
2019-11-22 23:00:00 10.6 6 Oeste 12 Norte 0 -- -- 96
2019-11-22 22:00:00 11.2 4 Noroeste 10 Nordeste 0.2 -- -- 96
2019-11-22 21:00:00 12 6 Nordeste 11 Nordeste 0 -- -- 96
2019-11-22 20:00:00 12.3 3 Nordeste 10 Este 1.4 -- -- 94
2019-11-22 19:00:00 12.7 3 Oeste 14 Sur 0.4 -- -- 92
2019-11-22 18:00:00 13.2 6 Sur 23 Sudeste 0.4 -- -- 89
2019-11-22 17:00:00 13.5 4 Nordeste 13 Noroeste 0 -- -- 89
2019-11-22 16:00:00 13.2 5 Este 13 Este 0 -- -- 92
2019-11-22 15:00:00 12.7 5 Este 13 Este 0 -- -- 91
2019-11-22 14:00:00 12.1 6 Este 14 Este 0 -- -- 92
2019-11-22 13:00:00 11.3 4 Este 12 Nordeste 0 -- -- 95
2019-11-22 12:00:00 10.3 4 Nordeste 12 Este 0.8 -- -- 95
2019-11-22 11:00:00 9.6 0 Calma 10 Sur 0 -- -- 96
2019-11-22 10:00:00 8.6 5 Oeste 10 Oeste 0 -- -- 96
2019-11-22 09:00:00 7.9 5 Sudoeste 7 Sudoeste 0 -- -- 96
2019-11-22 08:00:00 7.5 5 Sudoeste 11 Sudoeste 0 -- -- 96
2019-11-22 07:00:00 7.3 7 Oeste 12 Oeste 0 -- -- 95
2019-11-22 06:00:00 7.6 4 Oeste 6 Sudoeste 0 -- -- 94
2019-11-22 05:00:00 7.8 3 Sudoeste 15 Oeste 0 -- -- 95
2019-11-22 04:00:00 8.1 3 Sudoeste 17 Oeste 0 -- -- 94
2019-11-22 03:00:00 8.5 7 Sudoeste 12 Oeste 0 -- -- 93
2019-11-22 02:00:00 9.4 4 Oeste 10 Oeste 0 -- -- 93
2019-11-22 01:00:00 9.8 2 Oeste 6 Oeste 0 -- -- 92
2019-11-22 00:00:00 10.1 4 Oeste 6 Oeste 0 -- -- 91
2019-11-21 23:00:00 10.5 3 Sudoeste 8 Oeste 0.2 -- -- 90
2019-11-21 22:00:00 10.7 6 Oeste 12 Sudoeste 0.2 -- -- 89
2019-11-21 21:00:00 11.2 5 Sudoeste 8 Sudoeste 0 -- -- 82
2019-11-21 20:00:00 11.5 0 Calma 4 Norte 0 -- -- 79
2019-11-21 19:00:00 12 0 Calma 5 Nordeste 0 -- -- 76
2019-11-21 18:00:00 12.8 4 Este 8 Este 0 -- -- 74
2019-11-21 17:00:00 13.8 4 Nordeste 11 Este 0 -- -- 70
2019-11-21 16:00:00 14.3 5 Este 12 Sudeste 0 -- -- 69
2019-11-21 15:00:00 14.1 5 Este 9 Sudeste 0 -- -- 69
2019-11-21 14:00:00 12.5 0 Calma 6 Sudeste 0 -- -- 76
2019-11-21 13:00:00 12.2 3 Este 5 Nordeste 0 -- -- 73
2019-11-21 12:00:00 11.3 0 Calma 5 Sudoeste 0 -- -- 79
2019-11-21 11:00:00 9.7 3 Sudoeste 13 Oeste 0 -- -- 84
2019-11-21 10:00:00 8 7 Oeste 13 Oeste 0 -- -- 88
2019-11-21 09:00:00 6.9 8 Oeste 14 Oeste 0 -- -- 90
2019-11-21 08:00:00 6.3 4 Oeste 10 Oeste 0 -- -- 89
2019-11-21 07:00:00 6.5 5 Sudoeste 13 Sudeste 0 -- -- 87
2019-11-21 06:00:00 7.2 4 Sudoeste 12 Sudoeste 0 -- -- 84
2019-11-21 05:00:00 7.7 6 Sudoeste 14 Noroeste 0 -- -- 84
2019-11-21 04:00:00 7.2 10 Oeste 14 Oeste 0 -- -- 86
2019-11-21 03:00:00 7.3 8 Oeste 13 Oeste 0 -- -- 88
2019-11-21 02:00:00 7.5 3 Oeste 8 Sudoeste 0 -- -- 86
2019-11-21 01:00:00 7.5 5 Oeste 8 Sudoeste 0 -- -- 85
2019-11-21 00:00:00 8.6 4 Sudoeste 9 Oeste 0 -- -- 82
2019-11-20 23:00:00 9.4 4 Oeste 8 Oeste 0 -- -- 79
2019-11-20 22:00:00 9.7 4 Noroeste 6 Noroeste 0 -- -- 76
2019-11-20 21:00:00 10.2 0 Calma 6 Noroeste 0 -- -- 71
2019-11-20 20:00:00 10.7 4 Oeste 8 Oeste 0 -- -- 72
2019-11-20 19:00:00 11.3 4 Oeste 18 Sudoeste 0.2 -- -- 71
2019-11-20 18:00:00 12.7 4 Sudeste 12 Sudeste 0 -- -- 73
2019-11-20 17:00:00 13.3 6 Este 13 Este 0 -- -- 64
2019-11-20 16:00:00 14.1 8 Sudeste 19 Este 0 -- -- 59
2019-11-20 15:00:00 14.7 8 Este 17 Este 0 -- -- 59
2019-11-20 14:00:00 13.8 6 Este 15 Este 0 -- -- 58
2019-11-20 13:00:00 14.2 4 Sudeste 14 Sudeste 0 -- -- 54
2019-11-20 12:00:00 14 5 Este 12 Este 0 -- -- 51
2019-11-20 11:00:00 11.9 2 Sudoeste 12 Oeste 0 -- -- 61
2019-11-20 10:00:00 8 8 Oeste 15 Oeste 0 -- -- 72
2019-11-20 09:00:00 4.2 11 Oeste 17 Oeste 0 -- -- 87
2019-11-20 08:00:00 3.4 8 Oeste 19 Oeste 0 -- -- 87
2019-11-20 07:00:00 3.9 11 Oeste 16 Oeste 0 -- -- 85
2019-11-20 06:00:00 4.2 10 Oeste 15 Oeste 0 -- -- 84
2019-11-20 05:00:00 4.8 8 Oeste 14 Oeste 0 -- -- 82
2019-11-20 04:00:00 5.2 10 Oeste 18 Oeste 0 -- -- 80
2019-11-20 03:00:00 5.7 12 Oeste 18 Oeste 0 -- -- 78
2019-11-20 02:00:00 5.2 8 Oeste 18 Oeste 0 -- -- 80
2019-11-20 01:00:00 5.5 10 Oeste 21 Oeste 0 -- -- 81
2019-11-20 00:00:00 6.2 13 Oeste 19 Oeste 0 -- -- 80
2019-11-19 23:00:00 7 13 Oeste 17 Oeste 0 -- -- 79
2019-11-19 22:00:00 7.5 11 Oeste 14 Oeste 0 -- -- 80
2019-11-19 21:00:00 8.9 8 Oeste 9 Oeste 0 -- -- 76
2019-11-19 20:00:00 10.3 2 Oeste 6 Este 0 -- -- 74
2019-11-19 19:00:00 10.8 0 Calma 9 Sudeste 0 -- -- 71
2019-11-19 18:00:00 12.1 7 Sudeste 17 Sudeste 0 -- -- 57
2019-11-19 17:00:00 14.4 0 Calma 13 Norte 0 -- -- 42
2019-11-19 16:00:00 15.4 9 Noroeste 20 Noroeste 0 -- -- 38
2019-11-19 15:00:00 15.2 12 Noroeste 23 Noroeste 0 -- -- 39
2019-11-19 14:00:00 14.7 15 Noroeste 24 Noroeste 0 -- -- 40
2019-11-19 13:00:00 14.4 13 Noroeste 22 Norte 0 -- -- 43
2019-11-19 12:00:00 12.4 15 Noroeste 26 Noroeste 0 -- -- 48
2019-11-19 11:00:00 12 18 Noroeste 32 Noroeste 0 -- -- 45
2019-11-19 10:00:00 10.1 13 Noroeste 26 Noroeste 0 -- -- 50
2019-11-19 09:00:00 6.5 8 Oeste 18 Oeste 0 -- -- 64
2019-11-19 08:00:00 5.5 12 Noroeste 19 Sudoeste 0 -- -- 65
2019-11-19 07:00:00 4.6 12 Sudoeste 15 Sudoeste 0 -- -- 70
2019-11-19 06:00:00 6.2 11 Sudoeste 20 Noroeste 0 -- -- 65
2019-11-19 05:00:00 8.1 13 Noroeste 24 Noroeste 0 -- -- 58
2019-11-19 04:00:00 7.5 11 Sudoeste 19 Sudoeste 0 -- -- 62
2019-11-19 03:00:00 7.8 8 Sudoeste 13 Sudoeste 0 -- -- 60
2019-11-19 02:00:00 8.4 9 Sudoeste 21 Noroeste 0 -- -- 58
2019-11-19 01:00:00 9.1 9 Noroeste 21 Noroeste 0 -- -- 55
2019-11-19 00:00:00 9.3 6 Oeste 20 Noroeste 0 -- -- 55
2019-11-18 23:00:00 9.8 13 Oeste 27 Oeste 0 -- -- 55
2019-11-18 22:00:00 11 17 Noroeste 34 Oeste 0 -- -- 52
2019-11-18 21:00:00 10.7 13 Oeste 24 Oeste 0 -- -- 51
2019-11-18 20:00:00 10.6 10 Noroeste 28 Oeste 0 -- -- 52
2019-11-18 19:00:00 10.9 8 Oeste 33 Norte 0 -- -- 49
2019-11-18 18:00:00 11.5 13 Noroeste 46 Noroeste 0 -- -- 46
2019-11-18 17:00:00 12.4 21 Norte 36 Norte 0 -- -- 50
2019-11-18 16:00:00 13.4 19 Norte 39 Norte 0 -- -- 47
2019-11-18 15:00:00 14.5 19 Norte 44 Oeste 0 -- -- 47
2019-11-18 14:00:00 14.2 26 Noroeste 37 Noroeste 0 -- -- 46
2019-11-18 13:00:00 14.2 27 Noroeste 42 Noroeste 0 -- -- 49
2019-11-18 12:00:00 13.2 24 Noroeste 41 Noroeste 0 -- -- 53
2019-11-18 11:00:00 12 29 Noroeste 44 Noroeste 0 -- -- 58
2019-11-18 10:00:00 11 21 Noroeste 40 Noroeste 0 -- -- 60
2019-11-18 09:00:00 9.5 14 Noroeste 37 Noroeste 0 -- -- 70
2019-11-18 08:00:00 9.1 12 Noroeste 27 Noroeste 0 -- -- 74
2019-11-18 07:00:00 9.2 9 Noroeste 28 Noroeste 0 -- -- 79
2019-11-18 06:00:00 8.7 8 Oeste 26 Oeste 0 -- -- 91
2019-11-18 05:00:00 9 8 Oeste 21 Oeste 0.8 -- -- 91
2019-11-18 04:00:00 9.7 9 Noroeste 39 Norte 1.2 -- -- 91
2019-11-18 03:00:00 10.7 0 Calma 12 Oeste 0.2 -- -- 91
2019-11-18 02:00:00 10.8 10 Noroeste 19 Noroeste 0.6 -- -- 91
2019-11-18 01:00:00 10.4 3 Este 5 Sudeste 0.4 -- -- 85
2019-11-18 00:00:00 10.4 2 Este 6 Sudeste 0.2 -- -- 82
2019-11-17 23:00:00 10.6 3 Norte 8 Este 0 -- -- 80
2019-11-17 22:00:00 10.8 5 Sudeste 13 Oeste 0 -- -- 70
2019-11-17 21:00:00 10.5 4 Noroeste 12 Noroeste 0 -- -- 69
2019-11-17 20:00:00 12.2 8 Noroeste 22 Oeste 0 -- -- 63
2019-11-17 19:00:00 12 6 Oeste 10 Sudoeste 0 -- -- 59
2019-11-17 18:00:00 14.2 5 Oeste 11 Noroeste 0 -- -- 53
2019-11-17 17:00:00 15.5 6 Noroeste 9 Noroeste 0 -- -- 47
2019-11-17 16:00:00 16.9 5 Noroeste 26 Sudoeste 0 -- -- 42
2019-11-17 15:00:00 17.8 16 Sudoeste 26 Sudoeste 0 -- -- 38
2019-11-17 14:00:00 15.5 10 Oeste 23 Sudoeste 0 -- -- 41
2019-11-17 13:00:00 14.7 9 Oeste 17 Oeste 0 -- -- 39
2019-11-17 12:00:00 13.5 3 Oeste 17 Norte 0 -- -- 41
2019-11-17 11:00:00 12.2 11 Noroeste 16 Norte 0 -- -- 44
2019-11-17 10:00:00 9.2 6 Oeste 15 Oeste 0 -- -- 52
2019-11-17 09:00:00 4.6 9 Sudoeste 15 Sudoeste 0 -- -- 67
2019-11-17 08:00:00 3.5 10 Sudoeste 13 Oeste 0 -- -- 68
2019-11-17 07:00:00 4.7 9 Sudoeste 14 Oeste 0 -- -- 63
2019-11-17 06:00:00 5.9 10 Noroeste 17 Noroeste 0 -- -- 59
2019-11-17 05:00:00 6.8 7 Oeste 16 Oeste 0 -- -- 55
2019-11-17 04:00:00 7.4 11 Oeste 24 Oeste 0 -- -- 52
2019-11-17 03:00:00 7.7 13 Oeste 29 Oeste 0 -- -- 50
2019-11-17 02:00:00 8 13 Oeste 23 Oeste 0 -- -- 49
2019-11-17 01:00:00 7.4 13 Oeste 21 Oeste 0 -- -- 52
2019-11-17 00:00:00 6.5 9 Oeste 21 Sudoeste 0 -- -- 55
2019-11-16 23:00:00 6.9 9 Sudoeste 23 Oeste 0 -- -- 54
2019-11-16 22:00:00 7.2 12 Oeste 21 Oeste 0 -- -- 53
2019-11-16 21:00:00 8.9 10 Sudoeste 24 Noroeste 0 -- -- 48
2019-11-16 20:00:00 10.6 12 Noroeste 37 Oeste 0 -- -- 44
2019-11-16 19:00:00 11.4 19 Noroeste 42 Noroeste 0 -- -- 42
2019-11-16 18:00:00 12 22 Noroeste 41 Noroeste 0 -- -- 41
2019-11-16 17:00:00 13.4 24 Noroeste 40 Noroeste 0 -- -- 35
2019-11-16 16:00:00 14.2 23 Noroeste 44 Oeste 0 -- -- 35
2019-11-16 15:00:00 14.3 20 Noroeste 41 Noroeste 0 -- -- 36
2019-11-16 14:00:00 13.8 22 Noroeste 37 Noroeste 0 -- -- 39
2019-11-16 13:00:00 13.2 18 Noroeste 36 Noroeste 0 -- -- 42
2019-11-16 12:00:00 12.3 21 Noroeste 43 Oeste 0 -- -- 45
2019-11-16 11:00:00 11 21 Noroeste 41 Noroeste 0 -- -- 51
2019-11-16 10:00:00 9.6 16 Noroeste 29 Noroeste 0 -- -- 54
2019-11-16 09:00:00 7.8 22 Noroeste 36 Noroeste 0 -- -- 59
2019-11-16 08:00:00 6.7 19 Noroeste 40 Noroeste 0 -- -- 63
2019-11-16 07:00:00 6.6 23 Noroeste 35 Noroeste 0 -- -- 64
2019-11-16 06:00:00 7 19 Noroeste 30 Noroeste 0 -- -- 64
2019-11-16 05:00:00 6.6 14 Noroeste 28 Oeste 0 -- -- 64
2019-11-16 04:00:00 6.8 19 Noroeste 30 Noroeste 0 -- -- 64
2019-11-16 03:00:00 7.1 20 Noroeste 31 Noroeste 0 -- -- 62
2019-11-16 02:00:00 5.3 9 Sudoeste 16 Sudoeste 0 -- -- 65
2019-11-16 01:00:00 5.4 10 Sudoeste 17 Oeste 0 -- -- 64
2019-11-16 00:00:00 5.3 11 Sudoeste 17 Sudoeste 0 -- -- 65
2019-11-15 23:00:00 4.9 9 Oeste 20 Sudoeste 0 -- -- 67
2019-11-15 22:00:00 5 10 Oeste 23 Sudoeste 0 -- -- 67
2019-11-15 21:00:00 5.7 11 Sudoeste 22 Sudoeste 0 -- -- 65
2019-11-15 20:00:00 6.9 10 Oeste 16 Sudoeste 0 -- -- 60
2019-11-15 19:00:00 9 9 Oeste 21 Noroeste 0 -- -- 53
2019-11-15 18:00:00 10.1 15 Noroeste 31 Noroeste 0 -- -- 49
2019-11-15 17:00:00 11.6 24 Noroeste 40 Noroeste 0 -- -- 42
2019-11-15 16:00:00 12.7 26 Noroeste 36 Norte 0 -- -- 41
2019-11-15 15:00:00 13.4 17 Noroeste 34 Noroeste 0 -- -- 36
2019-11-15 14:00:00 13.4 15 Noroeste 31 Noroeste 0 -- -- 41
2019-11-15 13:00:00 12.9 17 Noroeste 32 Noroeste 0 -- -- 43
2019-11-15 12:00:00 11.6 14 Noroeste 21 Oeste 0 -- -- 51
2019-11-15 11:00:00 11.5 5 Oeste 17 Noroeste 0 -- -- 54
2019-11-15 10:00:00 9.4 3 Oeste 11 Noroeste 0 -- -- 63
2019-11-15 09:00:00 7 4 Sudoeste 8 Oeste 0 -- -- 72
2019-11-15 08:00:00 6.1 7 Oeste 10 Noroeste 0 -- -- 70
2019-11-15 07:00:00 7 6 Oeste 13 Oeste 0 -- -- 66
2019-11-15 06:00:00 6.3 7 Sudoeste 11 Sudoeste 0 -- -- 69
2019-11-15 05:00:00 6.6 9 Oeste 13 Oeste 0 -- -- 69
2019-11-15 04:00:00 7.3 4 Oeste 12 Sudeste 0 -- -- 64
2019-11-15 03:00:00 8.4 5 Este 11 Sudeste 0 -- -- 60
2019-11-15 02:00:00 9.4 5 Oeste 21 Oeste 0 -- -- 55
2019-11-15 01:00:00 10.1 10 Sudoeste 26 Oeste 0 -- -- 53
2019-11-15 00:00:00 11.3 18 Oeste 34 Oeste 0 -- -- 48